createdAt,value
2023-07-22T00:00:16.453Z,2.70
2023-07-22T00:02:47.781Z,1.93
2023-07-22T00:05:23.204Z,2.30
2023-07-22T00:07:52.904Z,2.10
2023-07-22T00:10:21.596Z,2.77
2023-07-22T00:12:50.149Z,1.90
2023-07-22T00:15:22.518Z,2.13
2023-07-22T00:17:52.096Z,3.23
2023-07-22T00:20:22.132Z,1.93
2023-07-22T00:22:51.698Z,1.57
2023-07-22T00:25:20.820Z,2.83
2023-07-22T00:27:49.572Z,2.43
2023-07-22T00:30:18.517Z,2.47
2023-07-22T00:32:47.103Z,2.50
2023-07-22T00:35:18.468Z,2.30
2023-07-22T00:37:49.647Z,2.47
2023-07-22T00:40:19.326Z,2.40
2023-07-22T00:42:48.029Z,2.27
2023-07-22T00:45:18.071Z,3.03
2023-07-22T00:47:48.055Z,2.30
2023-07-22T00:50:17.790Z,2.53
2023-07-22T00:52:47.953Z,2.90
2023-07-22T00:55:16.561Z,2.27
2023-07-22T00:57:45.073Z,1.90
2023-07-22T01:00:17.226Z,2.20
2023-07-22T01:02:47.286Z,2.37
2023-07-22T01:05:16.294Z,1.83
2023-07-22T01:07:45.930Z,2.50
2023-07-22T01:10:17.908Z,1.87
2023-07-22T01:12:49.586Z,2.37
2023-07-22T01:15:19.346Z,1.87
2023-07-22T01:17:48.345Z,2.40
2023-07-22T01:20:20.042Z,2.40
2023-07-22T01:22:54.407Z,2.60
2023-07-22T01:25:24.495Z,2.10
2023-07-22T01:27:54.547Z,2.00
2023-07-22T01:30:23.389Z,1.93
2023-07-22T01:32:52.208Z,2.67
2023-07-22T01:35:22.195Z,2.50
2023-07-22T01:37:52.281Z,2.30
2023-07-22T01:40:22.226Z,2.20
2023-07-22T01:42:51.135Z,2.50
2023-07-22T01:45:20.471Z,2.53
2023-07-22T01:47:49.592Z,2.93
2023-07-22T01:50:20.199Z,2.13
2023-07-22T01:52:48.897Z,1.90
2023-07-22T01:55:19.790Z,2.53
2023-07-22T01:57:48.865Z,2.53
2023-07-22T02:00:17.979Z,2.63
2023-07-22T02:02:48.123Z,3.20
2023-07-22T02:05:16.939Z,3.20
2023-07-22T02:07:45.537Z,2.57
2023-07-22T02:10:14.602Z,2.80
2023-07-22T02:12:45.085Z,2.73
2023-07-22T02:15:13.885Z,2.40
2023-07-22T02:17:43.054Z,2.40
2023-07-22T02:20:12.078Z,2.70
2023-07-22T02:22:41.074Z,2.90
2023-07-22T02:25:11.856Z,3.10
2023-07-22T02:27:43.960Z,3.57
2023-07-22T02:30:15.580Z,3.47
2023-07-22T02:32:44.833Z,3.30
2023-07-22T02:35:13.741Z,3.40
2023-07-22T02:37:42.392Z,3.40
2023-07-22T02:40:13.076Z,3.00
2023-07-22T02:42:42.444Z,4.67
2023-07-22T02:45:11.743Z,3.67
2023-07-22T02:47:42.200Z,3.40
2023-07-22T02:50:12.315Z,3.27
2023-07-22T02:52:41.073Z,3.57
2023-07-22T02:55:13.001Z,4.63
2023-07-22T02:57:43.381Z,5.47
2023-07-22T03:00:13.992Z,5.27
2023-07-22T03:02:44.687Z,4.10
2023-07-22T03:05:13.994Z,4.00
2023-07-22T03:07:43.649Z,4.27
2023-07-22T03:10:12.875Z,5.20
2023-07-22T03:12:41.855Z,3.83
2023-07-22T03:15:11.304Z,5.30
2023-07-22T03:17:40.618Z,4.50
2023-07-22T03:20:15.734Z,4.07
2023-07-22T03:22:44.949Z,3.57
2023-07-22T03:25:15.509Z,4.43
2023-07-22T03:27:44.501Z,3.00
2023-07-22T03:30:17.303Z,4.37
2023-07-22T03:32:49.061Z,4.00
2023-07-22T03:35:19.919Z,3.70
2023-07-22T03:37:49.003Z,4.57
2023-07-22T03:40:21.042Z,3.80
2023-07-22T03:42:50.400Z,4.47
2023-07-22T03:45:19.153Z,4.60
2023-07-22T03:47:48.507Z,3.97
2023-07-22T03:50:19.187Z,4.20
2023-07-22T03:52:47.996Z,4.73
2023-07-22T03:55:16.980Z,4.40
2023-07-22T03:57:45.372Z,4.47
2023-07-22T04:00:14.501Z,4.80
2023-07-22T04:02:43.884Z,3.50
2023-07-22T04:05:13.148Z,4.43
2023-07-22T04:07:46.666Z,4.97
2023-07-22T04:10:15.273Z,4.53
2023-07-22T04:12:44.014Z,4.00
2023-07-22T04:15:13.150Z,4.33
2023-07-22T04:17:41.979Z,5.37
2023-07-22T04:20:11.359Z,4.70
2023-07-22T04:22:40.096Z,4.00
2023-07-22T04:25:11.472Z,4.70
2023-07-22T04:27:40.590Z,5.20
2023-07-22T04:30:10.743Z,4.43
2023-07-22T04:32:39.778Z,4.83
2023-07-22T04:35:11.247Z,4.53
2023-07-22T04:37:40.343Z,4.30
2023-07-22T04:40:15.505Z,4.30
2023-07-22T04:42:44.066Z,4.03
2023-07-22T04:45:15.102Z,3.97
2023-07-22T04:47:45.758Z,4.17
2023-07-22T04:50:14.333Z,3.73
2023-07-22T04:52:46.360Z,3.53
2023-07-22T04:55:16.927Z,4.20
2023-07-22T04:57:46.477Z,4.30
2023-07-22T05:00:17.486Z,4.60
2023-07-22T05:02:46.638Z,4.53
2023-07-22T05:05:15.633Z,2.97
2023-07-22T05:07:46.854Z,4.47
2023-07-22T05:10:17.123Z,4.10
2023-07-22T05:12:46.749Z,3.47
2023-07-22T05:15:16.370Z,4.20
2023-07-22T05:17:44.909Z,4.33
2023-07-22T05:20:14.161Z,4.97
2023-07-22T05:22:42.995Z,5.00
2023-07-22T05:25:12.038Z,4.80
2023-07-22T05:27:42.562Z,3.10
2023-07-22T05:30:28.328Z,3.57
2023-07-22T05:33:01.704Z,4.20
2023-07-22T05:35:30.598Z,3.80
2023-07-22T05:37:59.370Z,4.37
2023-07-22T05:40:28.013Z,4.30
2023-07-22T05:42:58.229Z,5.03
2023-07-22T05:45:27.349Z,3.90
2023-07-22T05:47:56.150Z,3.90
2023-07-22T05:50:25.726Z,3.63
2023-07-22T05:52:54.296Z,5.13
2023-07-22T05:55:23.238Z,5.03
2023-07-22T05:57:51.739Z,3.90
2023-07-22T06:00:22.046Z,3.83
2023-07-22T06:02:50.859Z,3.47
2023-07-22T06:05:19.662Z,4.20
2023-07-22T06:07:48.883Z,3.80
2023-07-22T06:10:17.711Z,4.77
2023-07-22T06:12:46.335Z,4.00
2023-07-22T06:15:14.833Z,3.87
2023-07-22T06:17:45.331Z,3.70
2023-07-22T06:20:14.482Z,4.60
2023-07-22T06:22:43.641Z,3.97
2023-07-22T06:25:12.597Z,4.40
2023-07-22T06:27:41.563Z,4.60
2023-07-22T06:30:15.729Z,4.77
2023-07-22T06:32:45.964Z,4.27
2023-07-22T06:35:15.404Z,4.63
2023-07-22T06:37:44.610Z,5.30
2023-07-22T06:40:13.712Z,5.83
2023-07-22T06:42:42.869Z,5.80
2023-07-22T06:45:11.847Z,5.50
2023-07-22T06:47:40.531Z,4.97
2023-07-22T06:50:12.665Z,5.80
2023-07-22T06:52:41.182Z,6.37
2023-07-22T06:55:11.522Z,6.70
2023-07-22T06:57:40.884Z,5.57
2023-07-22T07:00:11.137Z,5.50
2023-07-22T07:02:39.924Z,5.20
2023-07-22T07:05:11.086Z,5.00
2023-07-22T07:07:40.537Z,5.57
2023-07-22T07:10:09.905Z,5.40
2023-07-22T07:12:38.539Z,6.03
2023-07-22T07:15:09.915Z,5.80
2023-07-22T07:17:38.447Z,5.37
2023-07-22T07:20:08.265Z,6.10
2023-07-22T07:22:38.411Z,4.73
2023-07-22T07:25:07.721Z,5.43
2023-07-22T07:27:36.913Z,6.07
2023-07-22T07:30:06.786Z,5.87
2023-07-22T07:32:35.783Z,3.70
2023-07-22T07:35:05.379Z,5.20
2023-07-22T07:37:35.097Z,4.97
2023-07-22T07:40:06.968Z,3.83
2023-07-22T07:42:35.497Z,4.07
2023-07-22T07:45:04.556Z,3.27
2023-07-22T07:47:33.149Z,2.50
2023-07-22T07:50:02.073Z,2.77
2023-07-22T07:52:41.260Z,3.57
2023-07-22T07:55:12.817Z,3.90
2023-07-22T07:57:41.389Z,3.10
2023-07-22T08:00:10.976Z,3.77
2023-07-22T08:02:41.861Z,3.10
2023-07-22T08:05:11.744Z,2.37
2023-07-22T08:07:40.626Z,2.97
2023-07-22T08:10:12.053Z,2.73
2023-07-22T08:12:40.727Z,2.43
2023-07-22T08:15:10.797Z,2.03
2023-07-22T08:17:39.494Z,2.30
2023-07-22T08:20:10.452Z,2.40
2023-07-22T08:22:39.205Z,2.37
2023-07-22T08:25:08.872Z,3.23
2023-07-22T08:27:39.142Z,2.50
2023-07-22T08:30:09.817Z,3.60
2023-07-22T08:32:38.527Z,2.70
2023-07-22T08:35:08.480Z,2.10
2023-07-22T08:37:37.087Z,2.43
2023-07-22T08:40:07.811Z,2.80
2023-07-22T08:42:39.180Z,2.67
2023-07-22T08:45:12.133Z,2.17
2023-07-22T08:47:49.756Z,1.90
2023-07-22T08:50:23.253Z,2.30
2023-07-22T08:52:53.387Z,2.67
2023-07-22T08:55:23.247Z,2.40
2023-07-22T08:57:55.030Z,1.93
2023-07-22T09:00:24.102Z,2.00
2023-07-22T09:02:54.521Z,2.10
2023-07-22T09:05:23.778Z,1.67
2023-07-22T09:07:53.756Z,2.53
2023-07-22T09:10:23.725Z,2.17
2023-07-22T09:12:54.353Z,2.00
2023-07-22T09:15:24.729Z,2.50
2023-07-22T09:17:53.903Z,1.63
2023-07-22T09:20:24.751Z,1.63
2023-07-22T09:23:07.315Z,1.87
2023-07-22T09:25:43.382Z,2.47
2023-07-22T09:28:14.047Z,1.87
2023-07-22T09:30:44.883Z,2.10
2023-07-22T09:33:24.653Z,2.00
2023-07-22T09:35:54.709Z,1.63
2023-07-22T09:38:27.836Z,1.70
2023-07-22T09:40:57.156Z,1.70
2023-07-22T09:43:27.542Z,2.00
2023-07-22T09:45:56.124Z,2.33
2023-07-22T09:48:26.761Z,1.93
2023-07-22T09:51:00.071Z,1.53
2023-07-22T09:53:28.587Z,1.40
2023-07-22T09:55:57.306Z,1.80
2023-07-22T09:58:31.740Z,1.60
2023-07-22T10:01:01.493Z,1.83
2023-07-22T10:03:31.859Z,1.77
2023-07-22T10:06:03.043Z,1.63
2023-07-22T10:08:38.597Z,1.73
2023-07-22T10:11:11.623Z,1.97
2023-07-22T10:13:42.612Z,1.73
2023-07-22T10:16:13.449Z,1.90
2023-07-22T10:18:44.511Z,1.63
2023-07-22T10:21:14.835Z,1.83
2023-07-22T10:23:44.048Z,2.20
2023-07-22T10:26:15.157Z,1.70
2023-07-22T10:28:46.943Z,1.47
2023-07-22T10:31:20.359Z,1.53
2023-07-22T10:33:49.571Z,1.50
2023-07-22T10:36:19.884Z,2.03
2023-07-22T10:39:01.424Z,1.33
2023-07-22T10:41:31.908Z,1.50
2023-07-22T10:44:02.721Z,1.87
2023-07-22T10:46:36.058Z,1.80
2023-07-22T10:49:15.302Z,1.90
2023-07-22T10:51:43.850Z,1.83
2023-07-22T10:54:16.902Z,1.20
2023-07-22T10:56:46.329Z,1.57
2023-07-22T10:59:16.414Z,1.70
2023-07-22T11:01:47.148Z,1.40
2023-07-22T11:07:07.227Z,2.00
2023-07-22T11:09:48.085Z,2.27
2023-07-22T11:12:18.905Z,1.90
2023-07-22T11:14:54.318Z,1.50
2023-07-22T11:17:31.523Z,1.80
2023-07-22T11:20:01.642Z,1.60
2023-07-22T11:22:31.675Z,1.30
2023-07-22T11:25:00.782Z,1.70
2023-07-22T11:27:29.478Z,1.57
2023-07-22T11:30:01.932Z,1.50
2023-07-22T11:32:30.495Z,1.37
2023-07-22T11:34:59.451Z,1.80
2023-07-22T11:37:30.720Z,1.60
2023-07-22T11:40:02.639Z,1.53
2023-07-22T11:42:32.129Z,1.80
2023-07-22T11:45:02.384Z,1.60
2023-07-22T11:47:32.518Z,2.10
2023-07-22T11:50:01.411Z,1.10
2023-07-22T11:52:30.186Z,1.50
2023-07-22T11:55:04.828Z,1.90
2023-07-22T11:57:33.322Z,1.70
2023-07-22T12:00:04.763Z,2.00
2023-07-22T12:02:38.764Z,1.77
2023-07-22T12:05:08.913Z,2.03
2023-07-22T12:07:39.296Z,1.87
2023-07-22T12:10:11.379Z,2.30
2023-07-22T12:12:43.084Z,1.83
2023-07-22T12:15:16.876Z,1.70
2023-07-22T12:17:49.542Z,1.87
2023-07-22T12:20:19.282Z,1.90
2023-07-22T12:22:50.224Z,1.90
2023-07-22T12:25:19.202Z,2.17
2023-07-22T12:27:52.992Z,2.20
2023-07-22T12:30:25.296Z,2.13
2023-07-22T12:32:54.736Z,1.83
2023-07-22T12:35:24.720Z,1.90
2023-07-22T12:37:53.464Z,2.20
2023-07-22T12:40:22.273Z,2.30
2023-07-22T12:42:51.057Z,2.40
2023-07-22T12:45:24.280Z,2.60
2023-07-22T12:47:53.073Z,2.70
2023-07-22T12:50:21.910Z,2.20
2023-07-22T12:52:50.598Z,2.30
2023-07-22T12:55:20.770Z,2.07
2023-07-22T12:57:53.572Z,2.37
2023-07-22T13:00:26.584Z,1.80
2023-07-22T13:02:55.154Z,2.30
2023-07-22T13:05:24.127Z,2.50
2023-07-22T13:07:53.052Z,2.00
2023-07-22T13:10:23.416Z,2.33
2023-07-22T13:12:52.159Z,1.80
2023-07-22T13:15:20.515Z,2.10
2023-07-22T13:17:50.721Z,2.70
2023-07-22T13:20:19.627Z,2.27
2023-07-22T13:22:48.438Z,2.00
2023-07-22T13:25:17.041Z,2.20
2023-07-22T13:27:45.636Z,2.60
2023-07-22T13:30:14.679Z,2.83
2023-07-22T13:32:43.430Z,2.07
2023-07-22T13:35:15.253Z,2.40
2023-07-22T13:37:46.507Z,2.30
2023-07-22T13:40:15.438Z,1.90
2023-07-22T13:42:45.704Z,2.37
2023-07-22T13:45:17.084Z,2.17
2023-07-22T13:47:45.988Z,2.60
2023-07-22T13:50:16.651Z,2.33
2023-07-22T13:52:45.176Z,2.93
2023-07-22T13:55:14.560Z,2.30
2023-07-22T13:57:43.844Z,2.23
2023-07-22T14:00:13.814Z,2.40
2023-07-22T14:02:43.492Z,2.20
2023-07-22T14:05:12.811Z,2.50
2023-07-22T14:07:43.312Z,2.53
2023-07-22T14:10:12.699Z,2.10
2023-07-22T14:12:41.296Z,2.63
2023-07-22T14:15:12.398Z,2.43
2023-07-22T14:17:41.267Z,2.80
2023-07-22T14:20:12.845Z,2.73
2023-07-22T14:22:45.212Z,2.17
2023-07-22T14:25:15.421Z,2.57
2023-07-22T14:27:44.353Z,3.10
2023-07-22T14:30:13.841Z,2.70
2023-07-22T14:32:42.828Z,2.67
2023-07-22T14:35:12.085Z,2.27
2023-07-22T14:37:44.101Z,2.00
2023-07-22T14:40:14.045Z,2.53
2023-07-22T14:42:42.802Z,2.40
2023-07-22T14:45:12.020Z,2.50
2023-07-22T14:47:41.089Z,2.20
2023-07-22T14:50:10.765Z,2.33
2023-07-22T14:52:40.045Z,2.53
2023-07-22T14:55:10.560Z,2.20
2023-07-22T14:57:39.339Z,2.33
2023-07-22T15:00:09.831Z,2.70
2023-07-22T15:02:38.261Z,2.27
2023-07-22T15:05:07.382Z,2.60
2023-07-22T15:07:36.222Z,2.47
2023-07-22T15:10:06.608Z,2.23
2023-07-22T15:12:36.919Z,2.77
2023-07-22T15:15:08.365Z,2.37
2023-07-22T15:17:37.645Z,2.30
2023-07-22T15:20:07.493Z,2.20
2023-07-22T15:22:36.151Z,1.90
2023-07-22T15:25:07.233Z,2.53
2023-07-22T15:27:39.259Z,2.43
2023-07-22T15:30:10.196Z,1.63
2023-07-22T15:32:39.828Z,2.23
2023-07-22T15:35:09.109Z,2.03
2023-07-22T15:37:37.691Z,2.87
2023-07-22T15:40:08.519Z,2.70
2023-07-22T15:42:39.386Z,2.00
2023-07-22T15:45:10.287Z,2.53
2023-07-22T15:47:38.842Z,1.77
2023-07-22T15:50:09.134Z,1.63
2023-07-22T15:52:39.095Z,1.90
2023-07-22T15:55:08.829Z,2.50
2023-07-22T15:57:38.642Z,1.90
2023-07-22T16:00:11.209Z,1.93
2023-07-22T16:02:40.010Z,2.30
2023-07-22T16:05:17.286Z,2.30
2023-07-22T16:07:52.043Z,2.07
2023-07-22T16:10:21.259Z,1.97
2023-07-22T16:12:51.453Z,1.93
2023-07-22T16:15:20.230Z,1.57
2023-07-22T16:17:49.309Z,2.00
2023-07-22T16:20:20.057Z,2.63
2023-07-22T16:22:48.778Z,1.70
2023-07-22T16:25:17.902Z,2.30
2023-07-22T16:27:46.722Z,2.17
2023-07-22T16:30:18.693Z,1.90
2023-07-22T16:32:47.152Z,2.70
2023-07-22T16:35:15.875Z,1.50
2023-07-22T16:37:44.285Z,1.70
2023-07-22T16:40:14.189Z,2.13
2023-07-22T16:42:43.125Z,1.63
2023-07-22T16:45:12.899Z,1.57
2023-07-22T16:47:44.001Z,2.40
2023-07-22T16:50:13.714Z,1.80
2023-07-22T16:52:43.013Z,1.93
2023-07-22T16:55:13.466Z,1.40
2023-07-22T16:57:43.561Z,1.47
2023-07-22T17:00:14.200Z,2.23
2023-07-22T17:02:46.057Z,1.37
2023-07-22T17:05:15.043Z,1.70
2023-07-22T17:07:49.146Z,1.80
2023-07-22T17:10:19.992Z,1.83
2023-07-22T17:12:49.775Z,2.00
2023-07-22T17:15:18.596Z,2.00
2023-07-22T17:17:49.038Z,2.40
2023-07-22T17:20:18.565Z,2.50
2023-07-22T17:22:48.418Z,1.90
2023-07-22T17:25:17.045Z,2.90
2023-07-22T17:27:45.886Z,1.93
2023-07-22T17:30:14.360Z,2.10
2023-07-22T17:32:43.211Z,2.10
2023-07-22T17:35:14.218Z,2.20
2023-07-22T17:37:43.719Z,1.60
2023-07-22T17:40:13.409Z,2.10
2023-07-22T17:42:43.285Z,1.90
2023-07-22T17:45:12.644Z,1.57
2023-07-22T17:47:41.941Z,1.63
2023-07-22T17:50:14.342Z,2.30
2023-07-22T17:52:43.107Z,1.83
2023-07-22T17:55:11.619Z,1.97
2023-07-22T17:57:40.702Z,1.90
2023-07-22T18:00:10.733Z,2.27
2023-07-22T18:02:42.145Z,2.30
2023-07-22T18:05:12.943Z,1.80
2023-07-22T18:07:41.623Z,1.90
2023-07-22T18:10:10.729Z,2.03
2023-07-22T18:12:40.494Z,1.90
2023-07-22T18:15:09.837Z,2.00
2023-07-22T18:17:38.659Z,2.00
2023-07-22T18:20:09.174Z,1.53
2023-07-22T18:22:39.491Z,1.73
2023-07-22T18:25:09.433Z,2.43
2023-07-22T18:27:37.988Z,2.00
2023-07-22T18:30:08.162Z,1.90
2023-07-22T18:32:36.773Z,1.77
2023-07-22T18:35:06.124Z,1.60
2023-07-22T18:37:35.342Z,1.93
2023-07-22T18:40:06.587Z,1.57
2023-07-22T18:42:37.921Z,1.80
2023-07-22T18:45:07.737Z,1.97
2023-07-22T18:47:36.404Z,1.37
2023-07-22T18:50:06.083Z,1.97
2023-07-22T18:52:36.016Z,1.87
2023-07-22T18:55:06.806Z,1.77
2023-07-22T18:57:35.647Z,1.60
2023-07-22T19:00:04.707Z,2.33
2023-07-22T19:02:33.934Z,1.77
2023-07-22T19:05:02.915Z,1.60
2023-07-22T19:07:32.131Z,3.23
2023-07-22T19:10:01.510Z,1.67
2023-07-22T19:12:32.015Z,1.90
2023-07-22T19:15:00.705Z,1.90
2023-07-22T19:17:29.333Z,2.60
2023-07-22T19:19:57.958Z,1.67
2023-07-22T19:22:26.335Z,2.20
2023-07-22T19:24:55.109Z,2.20
2023-07-22T19:27:23.811Z,1.90
2023-07-22T19:29:54.111Z,1.97
2023-07-22T19:32:22.503Z,2.07
2023-07-22T19:34:51.986Z,1.70
2023-07-22T19:37:20.779Z,2.33
2023-07-22T19:39:50.567Z,2.20
2023-07-22T19:42:19.496Z,2.00
2023-07-22T19:44:48.301Z,1.83
2023-07-22T19:47:20.342Z,1.73
2023-07-22T19:49:52.386Z,2.80
2023-07-22T19:52:21.634Z,1.80
2023-07-22T19:54:50.250Z,2.03
2023-07-22T19:57:19.183Z,1.70
2023-07-22T19:59:48.189Z,2.10
2023-07-22T20:02:18.494Z,2.43
2023-07-22T20:04:48.306Z,1.80
2023-07-22T20:07:17.018Z,2.00
2023-07-22T20:09:45.562Z,2.17
2023-07-22T20:12:14.267Z,2.13
2023-07-22T20:14:42.757Z,1.90
2023-07-22T20:17:11.209Z,1.83
2023-07-22T20:19:41.523Z,2.70
2023-07-22T20:22:12.237Z,1.90
2023-07-22T20:24:41.103Z,1.73
2023-07-22T20:27:10.049Z,2.07
2023-07-22T20:29:39.508Z,2.27
2023-07-22T20:32:23.104Z,2.37
2023-07-22T20:34:58.842Z,2.30
2023-07-22T20:37:29.913Z,1.70
2023-07-22T20:39:58.537Z,1.97
2023-07-22T20:42:29.063Z,2.43
2023-07-22T20:44:59.248Z,1.80
2023-07-22T20:47:27.901Z,2.37
2023-07-22T20:49:57.826Z,2.03
2023-07-22T20:52:26.931Z,1.60
2023-07-22T20:54:55.618Z,2.03
2023-07-22T20:57:24.027Z,3.57
2023-07-22T20:59:56.916Z,2.03
2023-07-22T21:02:26.218Z,2.60
2023-07-22T21:04:56.573Z,1.67
2023-07-22T21:07:28.876Z,1.60
2023-07-22T21:09:58.723Z,2.00
2023-07-22T21:12:27.179Z,2.07
2023-07-22T21:14:55.995Z,2.37
2023-07-22T21:17:24.775Z,2.03
2023-07-22T21:19:53.695Z,1.83
2023-07-22T21:22:22.275Z,2.20
2023-07-22T21:24:52.427Z,1.73
2023-07-22T21:27:23.944Z,1.87
2023-07-22T21:29:57.488Z,1.83
2023-07-22T21:32:26.933Z,1.93
2023-07-22T21:34:55.880Z,1.90
2023-07-22T21:37:24.482Z,1.77
2023-07-22T21:39:54.658Z,2.07
2023-07-22T21:42:23.255Z,2.10
2023-07-22T21:44:52.349Z,2.10
2023-07-22T21:47:21.064Z,2.13
2023-07-22T21:49:49.635Z,1.93
2023-07-22T21:52:18.728Z,2.30
2023-07-22T21:54:48.529Z,1.93
2023-07-22T21:57:19.130Z,2.03
2023-07-22T21:59:47.726Z,1.80
2023-07-22T22:02:16.325Z,1.40
2023-07-22T22:04:45.114Z,1.63
2023-07-22T22:07:13.702Z,1.70
2023-07-22T22:09:42.811Z,1.80
2023-07-22T22:12:11.181Z,1.73
2023-07-22T22:14:42.764Z,2.23
2023-07-22T22:17:11.409Z,1.67
2023-07-22T22:19:39.776Z,2.00
2023-07-22T22:22:08.230Z,2.50
2023-07-22T22:24:36.750Z,2.33
2023-07-22T22:27:05.594Z,2.50
2023-07-22T22:29:34.646Z,1.80
2023-07-22T22:32:05.000Z,1.87
2023-07-22T22:34:34.264Z,2.20
2023-07-22T22:37:03.798Z,1.67
2023-07-22T22:39:34.312Z,1.60
2023-07-22T22:42:02.914Z,2.00
2023-07-22T22:44:32.035Z,1.60
2023-07-22T22:47:00.383Z,2.03
2023-07-22T22:49:31.414Z,2.00
2023-07-22T22:52:00.935Z,1.87
2023-07-22T22:54:29.837Z,2.37
2023-07-22T22:56:58.774Z,2.40
2023-07-22T22:59:27.699Z,1.57
2023-07-22T23:01:56.125Z,1.70
2023-07-22T23:04:24.756Z,1.30
2023-07-22T23:06:54.772Z,2.00
2023-07-22T23:09:23.493Z,1.93
2023-07-22T23:11:52.151Z,1.70
2023-07-22T23:14:21.742Z,1.50
2023-07-22T23:16:50.303Z,1.77
2023-07-22T23:19:18.900Z,1.90
2023-07-22T23:21:47.675Z,1.67
2023-07-22T23:24:17.552Z,2.57
2023-07-22T23:26:46.382Z,1.63
2023-07-22T23:29:15.008Z,1.67
2023-07-22T23:31:43.665Z,1.73
2023-07-22T23:34:12.475Z,2.20
2023-07-22T23:36:41.358Z,2.10
2023-07-22T23:39:10.405Z,1.80
2023-07-22T23:41:41.208Z,2.00
2023-07-22T23:44:09.961Z,1.47
2023-07-22T23:46:38.541Z,1.20
2023-07-22T23:49:07.157Z,1.17
2023-07-22T23:51:35.942Z,1.50
2023-07-22T23:54:04.573Z,2.00
2023-07-22T23:56:33.846Z,1.90
2023-07-22T23:59:04.150Z,1.50
